Terminal Aerodrome Forecast
Issued by NWS Lake Charles, LA

Home | Current Version | Previous Version | Text Only | Print | Product List | Glossary On
Versions: 1 2 3 4 5 6 7 8 9 10 11 12 13 14 15 16 17 18
000
FTUS44 KLCH 041100
TAFAEX
TAF
KAEX 041130Z 0412/0512 15005KT 6SM BR OVC015
      TEMPO 0412/0416 3SM BR OVC007
     FM041700 18010G15KT P6SM VCSH OVC025
     FM050000 18006KT 6SM BR VCSH OVC035
     FM050400 36014G20KT 5SM -RA BR OVC007=

USA.gov is the U.S. government's official web portal to all federal, state and local government web resources and services.